• Join FlightAware (Why Join?)
  • Login
  • US Flag 
01:41AM EDT


 

Airport Tracker/Info


-or-


 

Live Flight TrackerFlight Track Log ✈ JBU1770 ✈ 20-Apr-2013 ✈ KCHS - KBOS

Flight Track Log - Related Links

Times and Time Zones

All times are in EDT time to prevent confusion due to time zone crossing. See the JBU1770 flight status page for this flight to view local times or setup timezone preferences in your user account.

Time Position Orientation Groundspeed Altitude Reporting Facility
EDT Latitude Longitude Course Direction KTS MPH feet Rate Location/Type
09:17PM 32.9853 -80.0100 40° Northeast 214 246 4,500  Level Jacksonville Center
09:18PM 33.2918 -79.9183 North  Level FlightAware Approximate
09:18PM 33.0517 -79.9906 14° North 229 264 6,600  Level Jacksonville Center
09:19PM 33.4258 -79.8715 North  Level FlightAware Approximate
09:19PM 33.1283 -79.9681 14° North 257 296 9,600  Level Jacksonville Center
09:20PM 33.5630 -79.8344 13° North  Level FlightAware Approximate
09:20PM 33.2133 -79.9431 14° North 285 328 11,700  Level Jacksonville Center
09:21PM 33.7000 -79.7972 North  Level FlightAware Approximate
09:21PM 33.3064 -79.9053 19° North 321 369 14,100  Level Jacksonville Center
09:22PM 33.8355 -79.7573 23° Northeast  Level FlightAware Approximate
09:22PM 33.3925 -79.8350 34° Northeast 351 404 16,600  Level Jacksonville Center
09:23PM 33.9461 -79.6539 40° Northeast  Level FlightAware Approximate
09:23PM 33.4844 -79.7622 33° Northeast 371 427 18,600  Level Jacksonville Center
09:24PM 33.5786 -79.6867 34° Northeast 390 449 20,600 1,740 Climbing Jacksonville Center
09:25PM 33.6769 -79.6083 34° Northeast 401 461 22,100 1,260 Climbing Jacksonville Center
09:26PM 33.7831 -79.5217 34° Northeast 424 488 23,200 1,200 Climbing Jacksonville Center
09:27PM 33.8956 -79.4350 33° Northeast 453 521 24,600 1,320 Climbing Jacksonville Center
09:29PM 34.1222 -79.2492 34° Northeast 485 558 27,400 1,260 Climbing Washington Center
09:30PM 34.2419 -79.1517 34° Northeast 506 582 28,600 780 Climbing Washington Center
09:31PM 34.3767 -79.0417 34° Northeast 512 589 29,000 180 Climbing Washington Center
09:32PM 34.4983 -78.9461 33° Northeast 519 597 29,000  Level Washington Center
09:33PM 34.6222 -78.8375 36° Northeast 528 608 29,000  Level Washington Center
09:34PM 34.7461 -78.7339 34° Northeast 533 613 29,000  Level Washington Center
09:35PM 34.8675 -78.6322 34° Northeast 538 619 29,000  Level Washington Center
09:36PM 34.9914 -78.5253 35° Northeast 538 619 29,000  Level Washington Center
09:37PM 35.1128 -78.4206 35° Northeast 533 613 29,000  Level Washington Center
09:38PM 35.2383 -78.3131 35° Northeast 533 613 29,000  Level Washington Center
09:39PM 35.3661 -78.2028 35° Northeast 540 621 29,000  Level Washington Center
09:40PM 35.4808 -78.1044 35° Northeast 551 634 29,000  Level Washington Center
09:41PM 35.6103 -77.9936 35° Northeast 556 640 29,000  Level Washington Center
09:42PM 35.7378 -77.8822 35° Northeast 556 640 29,000  Level Washington Center
09:43PM 35.8650 -77.7731 35° Northeast 556 640 29,000  Level Washington Center
09:44PM 35.9942 -77.6586 36° Northeast 556 640 29,000  Level Washington Center
09:45PM 36.1192 -77.5489 35° Northeast 556 640 29,000  Level Washington Center
09:46PM 36.2547 -77.4233 37° Northeast 551 634 29,000  Level Washington Center
09:47PM 36.3794 -77.3153 35° Northeast 551 634 29,000  Level Washington Center
09:48PM 36.5042 -77.2069 35° Northeast 551 634 29,000  Level Washington Center
09:49PM 36.6264 -77.0956 36° Northeast 551 634 29,000  Level Washington Center
09:50PM 36.7508 -76.9839 36° Northeast 551 634 29,000  Level Washington Center
09:51PM 36.8753 -76.8694 36° Northeast 551 634 29,000  Level Washington Center
09:52PM 36.9994 -76.7569 36° Northeast 551 634 29,000  Level Washington Center
09:53PM 37.1111 -76.6544 36° Northeast 551 634 29,000  Level Washington Center
09:54PM 37.2350 -76.5389 37° Northeast 551 634 29,000  Level Washington Center
09:55PM 37.3611 -76.4253 36° Northeast 551 634 29,000  Level Washington Center
09:56PM 37.4850 -76.3117 36° Northeast 551 634 29,000  Level Washington Center
09:57PM 37.6106 -76.1975 36° Northeast 551 634 29,000  Level Washington Center
09:58PM 37.7572 -76.0883 30° Northeast 557 641 29,000  Level Washington Center
09:59PM 37.8681 -75.9942 34° Northeast 545 627 29,000  Level Washington Center
10:00PM 38.0100 -75.8842 31° Northeast 540 621 29,000  Level Washington Center
10:01PM 38.1375 -75.7869 31° Northeast 540 621 29,000  Level Washington Center
10:02PM 38.2711 -75.6842 31° Northeast 540 621 29,000 -60 Level Washington Center
10:03PM 38.3878 -75.5997 30° Northeast 540 621 28,900 -60 Descending Washington Center
10:04PM 38.5192 -75.4908 33° Northeast 540 621 28,900  Level Washington Center
10:05PM 38.6525 -75.3869 31° Northeast 552 635 29,000  Climbing Washington Center
10:06PM 38.7836 -75.2828 32° Northeast 552 635 29,000 -60 Level Washington Center
10:07PM 38.9189 -75.1781 31° Northeast 558 642 28,900  Descending Washington Center
10:08PM 39.0497 -75.0706 33° Northeast 558 642 29,000  Climbing Washington Center
10:09PM 39.1847 -74.9650 31° Northeast 558 642 29,000  Level Washington Center
10:11PM 39.3967 -74.7953 32° Northeast 560 644 29,000  Level New York Center
10:12PM 39.5317 -74.6844 32° Northeast 560 644 29,000  Level New York Center
10:13PM 39.6581 -74.5811 32° Northeast 585 673 29,000  Level New York Center
10:14PM 39.8014 -74.4644 32° Northeast 590 679 29,000  Level New York Center
10:15PM 39.9406 -74.3472 33° Northeast 595 685 29,000  Level New York Center
10:16PM 40.0836 -74.2300 32° Northeast 600 690 29,000  Level New York Center
10:17PM 40.2225 -74.1144 32° Northeast 600 690 29,000  Level New York Center
10:18PM 40.3614 -73.9933 34° Northeast 605 696 29,000 -240 Level New York Center
10:20PM 40.6114 -73.7194 40° Northeast 617 710 28,400 -780 Descending Boston Center
10:21PM 40.7231 -73.5931 41° Northeast 607 699 26,800 -2,220 Descending Boston Center
10:22PM 40.8328 -73.4661 41° Northeast 565 650 24,000 -1,500 Descending Boston Center
10:23PM 40.9275 -73.3328 47° Northeast 516 594 23,900 -540 Descending Boston Center
10:24PM 41.0286 -73.1939 46° Northeast 487 560 23,000 -480 Descending Boston Center
10:25PM 41.1192 -73.0544 49° Northeast 487 560 23,000  Level Boston Center
10:26PM 41.1947 -72.9036 56° Northeast 487 560 23,000  Level Boston Center
10:27PM 41.2539 -72.7383 64° Northeast 487 560 23,000  Level Boston Center
10:28PM 41.3103 -72.5867 64° Northeast 500 575 23,000  Level Boston Center
10:29PM 41.3731 -72.4181 64° Northeast 500 575 23,000 -600 Level Boston Center
10:30PM 41.4353 -72.2381 65° Northeast 500 575 21,900 -1,080 Descending Boston Center
10:31PM 41.4953 -72.0742 64° Northeast 495 570 20,900 -1,320 Descending Boston Center
10:32PM 41.5531 -71.9158 64° Northeast 484 557 19,300 -1,500 Descending Boston Center
10:33PM 41.6083 -71.7572 65° Northeast 472 543 17,900 -1,440 Descending Boston Center
10:34PM 41.6556 -71.6233 65° Northeast 459 528 16,500 -1,500 Descending Boston Center
10:35PM 41.7125 -71.4611 65° Northeast 442 509 15,000 -1,560 Descending Boston Center
10:36PM 41.7697 -71.3239 61° Northeast 429 494 13,400 -1,560 Descending Boston Center
10:37PM 41.8267 -71.1892 60° Northeast 416 479 11,900 -1,200 Descending Boston Center
10:38PM 41.8772 -71.0683 61° Northeast 382 440 11,000 -600 Descending Boston Center
10:38PM 41.9167 -71.0000 52° Northeast 372 428 11,000  Level KA90
10:39PM 41.9667 -70.8833 60° Northeast 371 427 11,000  Level KA90
10:40PM 41.9806 -70.8286 71° East 372 428 11,000 -600 Level Boston Center
10:41PM 42.0333 -70.7350 53° Northeast 367 422 10,200 -1,260 Descending Boston Center
10:42PM 42.0944 -70.6411 49° Northeast 338 389 8,500 -1,740 Descending Boston Center
10:42PM 42.1333 -70.6167 25° Northeast 297 342 7,700 -1,380 Descending KA90
10:43PM 42.2000 -70.6167 360° North 279 321 6,500 -1,140 Descending KA90
10:44PM 42.2403 -70.6369 340° North 254 292 6,000 -1,140 Descending Boston Center
10:45PM 42.3075 -70.6714 339° North 254 292 4,800 -1,200 Descending Boston Center
10:46PM 42.3664 -70.7064 336° Northwest 254 292 3,600 -900 Descending Boston Center
10:47PM 42.3861 -70.7817 290° West 210 242 3,000 -900 Descending Boston Center
10:48PM 42.3892 -70.8406 274° West 180 207 1,800 -1,020 Descending Boston Center
10:48PM 42.3833 -70.8833 260° West 169 194 1,500 -720 Descending KA90
10:49PM 42.3667 -70.9333 246° West 143 165 800 -780 Descending KA90
10:51PM 42.3500 -71.0000 North  Level FlightAware Approximate